createdAt,value
2023-04-08T00:00:08.181Z,9.75
2023-04-08T00:02:10.040Z,10.88
2023-04-08T00:04:14.552Z,9.93
2023-04-08T00:06:16.672Z,10.20
2023-04-08T00:08:18.559Z,13.15
2023-04-08T00:10:20.761Z,11.00
2023-04-08T00:12:22.783Z,11.27
2023-04-08T00:14:24.828Z,12.65
2023-04-08T00:16:26.896Z,12.60
2023-04-08T00:18:29.520Z,11.82
2023-04-08T00:20:31.503Z,14.90
2023-04-08T00:22:33.396Z,13.73
2023-04-08T00:24:36.356Z,13.27
2023-04-08T00:26:38.302Z,10.43
2023-04-08T00:28:41.268Z,13.13
2023-04-08T00:30:43.331Z,11.93
2023-04-08T00:32:45.572Z,10.00
2023-04-08T00:34:49.562Z,10.70
2023-04-08T00:36:52.008Z,11.20
2023-04-08T00:38:54.006Z,10.90
2023-04-08T00:40:56.216Z,14.85
2023-04-08T00:42:58.709Z,14.77
2023-04-08T00:45:00.661Z,12.18
2023-04-08T00:47:04.260Z,13.73
2023-04-08T00:49:07.651Z,10.57
2023-04-08T00:51:09.746Z,14.40
2023-04-08T00:53:13.689Z,15.80
2023-04-08T00:55:15.517Z,12.80
2023-04-08T00:57:17.373Z,16.90
2023-04-08T00:59:21.672Z,14.05
2023-04-08T01:01:32.633Z,12.30
2023-04-08T01:03:42.068Z,14.20
2023-04-08T01:05:49.579Z,15.10
2023-04-08T01:07:51.869Z,12.85
2023-04-08T01:09:56.652Z,14.40
2023-04-08T01:12:03.549Z,13.73
2023-04-08T01:14:10.259Z,15.68
2023-04-08T01:16:16.090Z,14.93
2023-04-08T01:18:19.070Z,13.13
2023-04-08T01:20:22.800Z,13.45
2023-04-08T01:22:30.479Z,14.85
2023-04-08T01:24:39.153Z,14.15
2023-04-08T01:26:43.623Z,17.20
2023-04-08T01:28:45.479Z,13.30
2023-04-08T01:30:49.357Z,13.15
2023-04-08T01:32:54.580Z,11.70
2023-04-08T01:34:58.221Z,11.20
2023-04-08T01:37:02.158Z,14.70
2023-04-08T01:39:06.353Z,13.50
2023-04-08T01:41:11.192Z,14.48
2023-04-08T01:43:16.227Z,13.85
2023-04-08T01:45:18.869Z,13.85
2023-04-08T01:47:21.008Z,12.18
2023-04-08T01:49:25.154Z,14.75
2023-04-08T01:51:28.378Z,16.33
2023-04-08T01:53:32.928Z,15.60
2023-04-08T01:55:35.186Z,12.63
2023-04-08T01:57:38.624Z,11.25
2023-04-08T01:59:41.998Z,12.75
2023-04-08T02:01:47.052Z,16.65
2023-04-08T02:03:52.268Z,17.05
2023-04-08T02:05:54.362Z,13.63
2023-04-08T02:07:56.169Z,10.48
2023-04-08T02:09:58.803Z,11.93
2023-04-08T02:12:01.556Z,11.13
2023-04-08T02:14:03.442Z,15.13
2023-04-08T02:16:18.280Z,14.65
2023-04-08T02:18:28.321Z,15.02
2023-04-08T02:20:37.720Z,11.63
2023-04-08T02:22:43.038Z,13.00
2023-04-08T02:24:46.263Z,17.48
2023-04-08T02:26:51.087Z,13.88
2023-04-08T02:28:55.095Z,10.60
2023-04-08T02:31:00.289Z,13.77
2023-04-08T02:33:05.121Z,17.48
2023-04-08T02:35:08.465Z,11.63
2023-04-08T02:37:10.685Z,13.52
2023-04-08T02:39:12.897Z,12.82
2023-04-08T02:41:14.701Z,13.77
2023-04-08T02:43:16.841Z,14.82
2023-04-08T02:45:19.410Z,12.48
2023-04-08T02:47:21.331Z,13.95
2023-04-08T02:49:23.198Z,13.10
2023-04-08T02:51:25.093Z,12.05
2023-04-08T02:53:26.929Z,11.63
2023-04-08T02:55:28.796Z,14.38
2023-04-08T02:57:30.851Z,17.50
2023-04-08T02:59:32.735Z,13.73
2023-04-08T03:01:34.597Z,13.02
2023-04-08T03:03:36.778Z,13.48
2023-04-08T03:05:38.644Z,14.77
2023-04-08T03:07:40.540Z,15.20
2023-04-08T03:09:42.361Z,14.00
2023-04-08T03:11:44.922Z,14.23
2023-04-08T03:13:46.795Z,16.13
2023-04-08T03:15:48.629Z,21.00
2023-04-08T03:17:50.726Z,12.40
2023-04-08T03:19:52.610Z,12.65
2023-04-08T03:21:54.487Z,12.23
2023-04-08T03:23:56.276Z,13.52
2023-04-08T03:25:58.115Z,11.45
2023-04-08T03:28:02.142Z,16.83
2023-04-08T03:30:04.382Z,17.45
2023-04-08T03:32:06.487Z,17.05
2023-04-08T03:34:08.438Z,16.58
2023-04-08T03:36:10.395Z,18.27
2023-04-08T03:38:12.329Z,17.05
2023-04-08T03:40:14.253Z,15.63
2023-04-08T03:42:16.047Z,16.10
2023-04-08T03:44:17.898Z,17.98
2023-04-08T03:46:19.832Z,17.38
2023-04-08T03:48:21.632Z,18.23
2023-04-08T03:50:23.631Z,16.25
2023-04-08T03:52:25.680Z,15.55
2023-04-08T03:54:27.477Z,18.83
2023-04-08T03:56:29.355Z,18.90
2023-04-08T03:58:31.962Z,21.48
2023-04-08T04:00:35.970Z,14.52
2023-04-08T04:02:38.049Z,17.30
2023-04-08T04:04:39.927Z,17.67
2023-04-08T04:06:43.953Z,15.43
2023-04-08T04:08:48.295Z,17.70
2023-04-08T04:10:52.351Z,13.82
2023-04-08T04:12:54.170Z,15.23
2023-04-08T04:14:56.131Z,20.63
2023-04-08T04:16:57.961Z,16.23
2023-04-08T04:19:02.190Z,19.48
2023-04-08T04:21:09.187Z,18.45
2023-04-08T04:23:11.189Z,22.25
2023-04-08T04:25:13.111Z,19.98
2023-04-08T04:27:17.342Z,19.88
2023-04-08T04:29:19.162Z,16.80
2023-04-08T04:31:23.316Z,16.88
2023-04-08T04:33:25.179Z,20.08
2023-04-08T04:35:26.986Z,20.05
2023-04-08T04:37:28.963Z,21.75
2023-04-08T04:39:31.078Z,18.45
2023-04-08T04:41:32.892Z,20.50
2023-04-08T04:43:34.800Z,17.55
2023-04-08T04:45:36.594Z,18.08
2023-04-08T04:47:38.474Z,19.45
2023-04-08T04:49:40.361Z,18.25
2023-04-08T04:51:42.413Z,20.38
2023-04-08T04:53:44.230Z,19.02
2023-04-08T04:55:46.941Z,20.52
2023-04-08T04:57:49.455Z,17.75
2023-04-08T04:59:51.577Z,20.67
2023-04-08T05:01:53.512Z,20.27
2023-04-08T05:03:55.550Z,15.15
2023-04-08T05:05:57.334Z,22.75
2023-04-08T05:07:59.348Z,20.02
2023-04-08T05:10:03.891Z,21.85
2023-04-08T05:12:06.279Z,20.17
2023-04-08T05:14:08.073Z,21.85
2023-04-08T05:16:10.705Z,18.85
2023-04-08T05:18:12.647Z,22.60
2023-04-08T05:20:16.412Z,20.00
2023-04-08T05:22:19.531Z,20.20
2023-04-08T05:24:21.605Z,18.52
2023-04-08T05:26:23.736Z,21.42
2023-04-08T05:28:25.633Z,19.08
2023-04-08T05:30:27.605Z,20.38
2023-04-08T05:32:30.334Z,18.45
2023-04-08T05:34:32.532Z,21.42
2023-04-08T05:36:34.446Z,17.25
2023-04-08T05:38:36.241Z,19.25
2023-04-08T05:40:38.132Z,19.65
2023-04-08T05:42:39.925Z,18.98
2023-04-08T05:44:43.924Z,17.90
2023-04-08T05:46:46.130Z,16.67
2023-04-08T05:48:48.316Z,21.33
2023-04-08T05:50:50.732Z,20.38
2023-04-08T05:52:52.547Z,21.83
2023-04-08T05:54:54.360Z,19.35
2023-04-08T05:56:56.228Z,23.00
2023-04-08T05:58:58.430Z,18.90
2023-04-08T06:01:00.905Z,21.75
2023-04-08T06:03:02.941Z,23.00
2023-04-08T06:05:06.024Z,20.02
2023-04-08T06:07:08.549Z,22.52
2023-04-08T06:09:10.586Z,25.08
2023-04-08T06:11:12.400Z,22.88
2023-04-08T06:13:14.268Z,20.50
2023-04-08T06:15:16.798Z,26.38
2023-04-08T06:17:18.590Z,22.42
2023-04-08T06:19:20.568Z,24.77
2023-04-08T06:21:22.497Z,21.92
2023-04-08T06:23:24.299Z,21.88
2023-04-08T06:25:26.174Z,23.27
2023-04-08T06:27:28.103Z,23.02
2023-04-08T06:29:30.059Z,21.65
2023-04-08T06:31:31.933Z,23.75
2023-04-08T06:33:33.771Z,25.13
2023-04-08T06:35:37.603Z,21.40
2023-04-08T06:37:39.464Z,27.65
2023-04-08T06:39:41.710Z,25.10
2023-04-08T06:41:43.692Z,30.17
2023-04-08T06:43:45.649Z,24.10
2023-04-08T06:45:48.428Z,23.90
2023-04-08T06:47:50.757Z,24.63
2023-04-08T06:49:52.963Z,24.63
2023-04-08T06:51:54.791Z,25.30
2023-04-08T06:53:56.678Z,28.63
2023-04-08T06:55:58.681Z,22.48
2023-04-08T06:58:02.167Z,26.70
2023-04-08T07:00:07.002Z,27.90
2023-04-08T07:02:08.846Z,29.10
2023-04-08T07:04:10.786Z,33.28
2023-04-08T07:06:12.636Z,28.35
2023-04-08T07:08:14.562Z,31.05
2023-04-08T07:10:18.382Z,31.73
2023-04-08T07:12:20.338Z,36.60
2023-04-08T07:14:22.247Z,30.48
2023-04-08T07:16:24.291Z,29.13
2023-04-08T07:18:26.585Z,31.40
2023-04-08T07:20:29.724Z,31.90
2023-04-08T07:22:32.900Z,29.98
2023-04-08T07:24:34.799Z,31.35
2023-04-08T07:26:36.921Z,30.48
2023-04-08T07:28:38.827Z,29.23
2023-04-08T07:30:40.788Z,29.67
2023-04-08T07:32:42.785Z,28.98
2023-04-08T07:34:44.628Z,29.08
2023-04-08T07:36:46.493Z,28.58
2023-04-08T07:38:48.502Z,33.80
2023-04-08T07:40:50.636Z,34.83
2023-04-08T07:42:53.204Z,32.83
2023-04-08T07:44:55.111Z,32.25
2023-04-08T07:46:57.127Z,32.75
2023-04-08T07:48:59.054Z,30.85
2023-04-08T07:51:09.229Z,34.92
2023-04-08T07:53:12.669Z,29.67
2023-04-08T07:55:14.448Z,33.20
2023-04-08T07:57:16.642Z,32.40
2023-04-08T07:59:20.814Z,34.05
2023-04-08T08:01:24.504Z,33.97
2023-04-08T08:03:27.395Z,31.98
2023-04-08T08:05:29.457Z,34.25
2023-04-08T08:07:31.345Z,34.95
2023-04-08T08:09:33.301Z,30.73
2023-04-08T08:11:35.294Z,33.63
2023-04-08T08:13:37.137Z,30.33
2023-04-08T08:15:39.105Z,28.70
2023-04-08T08:17:41.212Z,29.67
2023-04-08T08:19:43.217Z,25.50
2023-04-08T08:21:45.135Z,28.20
2023-04-08T08:23:47.334Z,32.58
2023-04-08T08:25:51.210Z,28.52
2023-04-08T08:27:55.681Z,33.33
2023-04-08T08:29:57.638Z,33.40
2023-04-08T08:31:59.519Z,26.02
2023-04-08T08:34:01.479Z,26.52
2023-04-08T08:36:05.909Z,28.30
2023-04-08T08:38:07.863Z,29.65
2023-04-08T08:40:13.124Z,29.13
2023-04-08T08:42:21.880Z,21.70
2023-04-08T08:44:24.043Z,24.63
2023-04-08T08:46:25.958Z,25.13
2023-04-08T08:48:28.149Z,18.25
2023-04-08T08:50:30.572Z,24.50
2023-04-08T08:52:32.633Z,20.90
2023-04-08T08:54:34.524Z,20.17
2023-04-08T08:56:36.465Z,18.70
2023-04-08T08:58:39.402Z,17.58
2023-04-08T09:00:42.765Z,16.15
2023-04-08T09:02:45.225Z,21.92
2023-04-08T09:04:57.657Z,12.43
2023-04-08T09:07:05.977Z,18.40
2023-04-08T09:09:10.947Z,18.90
2023-04-08T09:11:15.780Z,18.45
2023-04-08T09:13:17.974Z,14.70
2023-04-08T09:15:19.965Z,15.57
2023-04-08T09:17:28.192Z,15.48
2023-04-08T09:19:30.123Z,16.23
2023-04-08T09:21:32.399Z,14.48
2023-04-08T09:23:38.014Z,17.33
2023-04-08T09:25:40.461Z,14.57
2023-04-08T09:27:42.392Z,13.05
2023-04-08T09:29:46.716Z,12.65
2023-04-08T09:31:54.972Z,10.80
2023-04-08T09:34:02.866Z,10.93
2023-04-08T09:36:05.496Z,12.55
2023-04-08T09:38:07.712Z,10.98
2023-04-08T09:40:11.772Z,10.65
2023-04-08T09:42:16.033Z,12.57
2023-04-08T09:44:21.353Z,12.57
2023-04-08T09:46:29.367Z,9.95
2023-04-08T09:48:40.059Z,10.82
2023-04-08T09:50:48.076Z,10.48
2023-04-08T09:52:57.305Z,13.55
2023-04-08T09:55:03.361Z,7.47
2023-04-08T09:57:11.647Z,10.05
2023-04-08T09:59:17.613Z,9.85
2023-04-08T10:01:27.220Z,8.32
2023-04-08T10:03:36.300Z,9.05
2023-04-08T10:05:41.238Z,7.63
2023-04-08T10:07:43.390Z,7.22
2023-04-08T10:09:45.833Z,11.77
2023-04-08T10:11:48.405Z,10.43
2023-04-08T10:13:51.678Z,9.55
2023-04-08T10:16:17.407Z,9.90
2023-04-08T10:18:20.734Z,8.00
2023-04-08T10:20:28.768Z,15.35
2023-04-08T10:22:34.606Z,10.15
2023-04-08T10:24:36.514Z,14.35
2023-04-08T10:26:39.883Z,9.82
2023-04-08T10:28:41.918Z,10.30
2023-04-08T10:30:45.818Z,10.90
2023-04-08T10:32:50.318Z,8.85
2023-04-08T10:34:53.929Z,9.20
2023-04-08T10:36:59.565Z,10.38
2023-04-08T10:39:01.981Z,14.18
2023-04-08T10:41:04.380Z,12.00
2023-04-08T10:43:07.276Z,8.82
2023-04-08T10:45:09.806Z,8.30
2023-04-08T10:47:13.720Z,7.82
2023-04-08T10:49:17.529Z,7.80
2023-04-08T10:51:20.115Z,8.77
2023-04-08T10:53:27.486Z,11.40
2023-04-08T10:55:29.660Z,8.13
2023-04-08T10:57:32.339Z,7.43
2023-04-08T10:59:34.203Z,6.00
2023-04-08T11:01:40.767Z,6.53
2023-04-08T11:03:44.214Z,7.95
2023-04-08T11:05:47.241Z,6.70
2023-04-08T11:07:49.657Z,7.55
2023-04-08T11:09:54.596Z,5.72
2023-04-08T11:11:57.345Z,8.73
2023-04-08T11:13:59.472Z,10.68
2023-04-08T11:16:02.751Z,4.75
2023-04-08T11:18:06.641Z,7.35
2023-04-08T11:20:10.265Z,6.90
2023-04-08T11:22:13.404Z,4.35
2023-04-08T11:24:16.853Z,5.35
2023-04-08T11:26:20.260Z,5.50
2023-04-08T11:28:23.084Z,4.65
2023-04-08T11:30:25.606Z,6.40
2023-04-08T11:32:29.387Z,4.15
2023-04-08T11:34:31.596Z,5.88
2023-04-08T11:36:35.386Z,3.83
2023-04-08T11:38:41.180Z,3.92
2023-04-08T11:40:54.311Z,4.95
2023-04-08T11:42:56.401Z,6.35
2023-04-08T11:44:59.173Z,4.70
2023-04-08T11:47:02.377Z,3.90
2023-04-08T11:49:07.095Z,4.60
2023-04-08T11:51:09.377Z,5.25
2023-04-08T11:53:18.700Z,6.38
2023-04-08T11:55:26.553Z,5.80
2023-04-08T11:57:30.353Z,3.85
2023-04-08T11:59:32.251Z,5.78
2023-04-08T12:01:34.359Z,3.53
2023-04-08T12:03:36.565Z,2.95
2023-04-08T12:05:38.679Z,3.90
2023-04-08T12:07:40.742Z,3.65
2023-04-08T12:09:42.595Z,4.55
2023-04-08T12:11:44.673Z,4.45
2023-04-08T12:13:46.520Z,3.70
2023-04-08T12:15:51.167Z,3.72
2023-04-08T12:17:53.389Z,3.00
2023-04-08T12:19:55.402Z,4.97
2023-04-08T12:21:59.318Z,5.00
2023-04-08T12:24:01.803Z,3.15
2023-04-08T12:26:04.470Z,3.38
2023-04-08T12:28:06.471Z,3.50
2023-04-08T12:30:09.435Z,3.22
2023-04-08T12:32:13.184Z,3.80
2023-04-08T12:34:15.063Z,4.32
2023-04-08T12:36:17.444Z,3.88
2023-04-08T12:38:19.491Z,3.25
2023-04-08T12:40:23.830Z,4.13
2023-04-08T12:42:28.098Z,4.88
2023-04-08T12:44:33.097Z,6.97
2023-04-08T12:46:34.983Z,3.33
2023-04-08T12:48:37.163Z,2.58
2023-04-08T12:50:39.254Z,4.25
2023-04-08T12:52:41.471Z,3.53
2023-04-08T12:54:43.340Z,7.05
2023-04-08T12:56:45.747Z,7.63
2023-04-08T12:58:47.910Z,2.83
2023-04-08T13:00:49.901Z,3.78
2023-04-08T13:02:52.097Z,4.15
2023-04-08T13:04:55.450Z,3.42
2023-04-08T13:06:57.603Z,5.45
2023-04-08T13:08:59.818Z,4.68
2023-04-08T13:11:02.079Z,6.95
2023-04-08T13:13:04.067Z,4.78
2023-04-08T13:15:07.426Z,5.68
2023-04-08T13:17:09.448Z,6.10
2023-04-08T13:19:11.699Z,6.40
2023-04-08T13:21:13.658Z,3.85
2023-04-08T13:23:18.002Z,5.60
2023-04-08T13:25:20.234Z,4.32
2023-04-08T13:27:22.352Z,5.63
2023-04-08T13:29:24.218Z,3.97
2023-04-08T13:31:26.608Z,3.60
2023-04-08T13:33:28.701Z,4.50
2023-04-08T13:35:33.510Z,3.15
2023-04-08T13:37:35.651Z,4.95
2023-04-08T13:39:37.718Z,4.70
2023-04-08T13:41:39.634Z,3.10
2023-04-08T13:43:41.954Z,2.50
2023-04-08T13:45:45.646Z,5.32
2023-04-08T13:47:47.998Z,4.07
2023-04-08T13:49:49.942Z,4.72
2023-04-08T13:51:54.516Z,7.93
2023-04-08T13:53:56.387Z,3.42
2023-04-08T13:55:59.260Z,6.57
2023-04-08T13:58:02.429Z,3.42
2023-04-08T14:00:07.046Z,4.72
2023-04-08T14:02:09.264Z,3.08
2023-04-08T14:04:12.057Z,4.13
2023-04-08T14:06:13.922Z,3.60
2023-04-08T14:08:18.140Z,6.10
2023-04-08T14:10:20.262Z,5.60
2023-04-08T14:12:25.160Z,5.63
2023-04-08T14:14:27.128Z,2.28
2023-04-08T14:16:31.038Z,2.70
2023-04-08T14:18:32.929Z,3.13
2023-04-08T14:20:36.217Z,2.03
2023-04-08T14:22:38.316Z,4.85
2023-04-08T14:24:40.386Z,3.28
2023-04-08T14:26:42.410Z,2.45
2023-04-08T14:28:44.426Z,3.75
2023-04-08T14:30:47.615Z,3.42
2023-04-08T14:32:49.701Z,4.75
2023-04-08T14:34:52.009Z,3.53
2023-04-08T14:36:54.003Z,3.75
2023-04-08T14:38:56.012Z,3.80
2023-04-08T14:40:57.928Z,2.63
2023-04-08T14:43:00.133Z,3.58
2023-04-08T14:45:04.244Z,3.33
2023-04-08T14:47:08.981Z,3.28
2023-04-08T14:49:11.012Z,3.03
2023-04-08T14:51:13.688Z,3.50
2023-04-08T14:53:15.651Z,3.28
2023-04-08T14:55:17.629Z,4.18
2023-04-08T14:57:20.573Z,3.15
2023-04-08T14:59:22.611Z,6.35
2023-04-08T15:01:24.669Z,5.90
2023-04-08T15:03:26.857Z,4.95
2023-04-08T15:05:31.917Z,4.93
2023-04-08T15:07:34.545Z,3.55
2023-04-08T15:09:53.829Z,3.35
2023-04-08T15:11:56.702Z,3.90
2023-04-08T15:13:58.737Z,6.32
2023-04-08T15:16:01.049Z,3.00
2023-04-08T15:18:03.163Z,2.90
2023-04-08T15:20:05.901Z,2.42
2023-04-08T15:22:07.906Z,1.38
2023-04-08T15:24:10.732Z,3.58
2023-04-08T15:26:12.648Z,2.95
2023-04-08T15:28:14.732Z,2.40
2023-04-08T15:30:17.350Z,1.65
2023-04-08T15:32:19.426Z,4.38
2023-04-08T15:34:23.742Z,4.05
2023-04-08T15:36:26.779Z,3.75
2023-04-08T15:38:29.104Z,5.53
2023-04-08T15:40:33.918Z,2.30
2023-04-08T15:42:36.059Z,4.70
2023-04-08T15:44:38.085Z,4.22
2023-04-08T15:46:40.036Z,2.88
2023-04-08T15:48:43.228Z,1.55
2023-04-08T15:50:45.521Z,2.67
2023-04-08T15:52:47.528Z,2.53
2023-04-08T15:54:49.441Z,2.90
2023-04-08T15:56:51.980Z,2.03
2023-04-08T15:58:55.898Z,2.20
2023-04-08T16:00:58.048Z,1.83
2023-04-08T16:03:00.178Z,5.82
2023-04-08T16:05:02.379Z,1.55
2023-04-08T16:07:04.787Z,2.38
2023-04-08T16:09:06.866Z,2.03
2023-04-08T16:11:08.962Z,3.45
2023-04-08T16:13:10.925Z,9.40
2023-04-08T16:15:12.901Z,2.00
2023-04-08T16:17:17.356Z,5.00
2023-04-08T16:19:22.228Z,7.13
2023-04-08T16:21:24.362Z,4.60
2023-04-08T16:23:26.239Z,4.75
2023-04-08T16:25:28.578Z,5.63
2023-04-08T16:27:30.580Z,4.00
2023-04-08T16:29:33.017Z,6.28
2023-04-08T16:31:35.021Z,5.75
2023-04-08T16:33:36.868Z,8.27
2023-04-08T16:35:39.137Z,8.95
2023-04-08T16:37:41.323Z,3.60
2023-04-08T16:39:43.369Z,3.92
2023-04-08T16:41:45.315Z,3.95
2023-04-08T16:43:47.309Z,5.70
2023-04-08T16:45:49.919Z,4.47
2023-04-08T16:47:52.213Z,3.83
2023-04-08T16:49:57.181Z,4.50
2023-04-08T16:51:59.119Z,4.82
2023-04-08T16:54:01.257Z,3.55
2023-04-08T16:56:03.491Z,5.53
2023-04-08T16:58:05.598Z,5.18
2023-04-08T17:00:08.430Z,7.75
2023-04-08T17:02:13.405Z,5.28
2023-04-08T17:04:15.664Z,5.97
2023-04-08T17:06:17.870Z,6.10
2023-04-08T17:08:19.981Z,5.20
2023-04-08T17:10:23.131Z,5.43
2023-04-08T17:12:25.181Z,5.40
2023-04-08T17:14:27.812Z,5.63
2023-04-08T17:16:30.080Z,2.78
2023-04-08T17:18:32.403Z,6.28
2023-04-08T17:20:34.313Z,4.00
2023-04-08T17:22:36.514Z,3.58
2023-04-08T17:24:38.382Z,5.03
2023-04-08T17:26:42.709Z,3.50
2023-04-08T17:28:44.699Z,4.60
2023-04-08T17:30:47.693Z,4.38
2023-04-08T17:32:49.692Z,6.78
2023-04-08T17:34:54.682Z,4.35
2023-04-08T17:36:56.858Z,5.05
2023-04-08T17:38:58.846Z,6.63
2023-04-08T17:41:00.834Z,4.78
2023-04-08T17:43:04.957Z,3.35
2023-04-08T17:45:07.934Z,3.97
2023-04-08T17:47:09.968Z,5.28
2023-04-08T17:49:13.011Z,4.93
2023-04-08T17:51:15.010Z,4.80
2023-04-08T17:53:16.865Z,5.85
2023-04-08T17:55:21.197Z,3.85
2023-04-08T17:57:26.507Z,5.15
2023-04-08T17:59:28.503Z,7.82
2023-04-08T18:01:30.936Z,4.75
2023-04-08T18:03:33.039Z,5.72
2023-04-08T18:05:34.933Z,4.10
2023-04-08T18:07:36.872Z,4.50
2023-04-08T18:09:39.087Z,5.38
2023-04-08T18:11:41.187Z,5.53
2023-04-08T18:13:43.287Z,5.43
2023-04-08T18:15:48.235Z,5.05
2023-04-08T18:17:50.332Z,5.60
2023-04-08T18:19:52.309Z,5.15
2023-04-08T18:21:55.420Z,4.95
2023-04-08T18:23:57.367Z,4.47
2023-04-08T18:25:59.325Z,7.20
2023-04-08T18:28:01.484Z,4.57
2023-04-08T18:30:03.623Z,4.00
2023-04-08T18:32:06.348Z,11.50
2023-04-08T18:34:08.693Z,4.70
2023-04-08T18:36:12.838Z,5.32
2023-04-08T18:38:14.999Z,6.22
2023-04-08T18:40:17.996Z,5.05
2023-04-08T18:42:19.988Z,6.10
2023-04-08T18:44:23.442Z,7.57
2023-04-08T18:46:25.672Z,6.90
2023-04-08T18:48:27.733Z,4.57
2023-04-08T18:50:29.762Z,4.68
2023-04-08T18:52:32.377Z,5.38
2023-04-08T18:54:36.694Z,8.02
2023-04-08T18:56:38.643Z,9.95
2023-04-08T18:58:40.564Z,9.07
2023-04-08T19:00:43.883Z,6.03
2023-04-08T19:02:46.012Z,6.70
2023-04-08T19:04:48.059Z,9.43
2023-04-08T19:06:50.054Z,7.85
2023-04-08T19:08:51.950Z,5.20
2023-04-08T19:10:53.809Z,4.97
2023-04-08T19:12:57.745Z,5.22
2023-04-08T19:14:59.653Z,5.75
2023-04-08T19:17:01.881Z,4.50
2023-04-08T19:19:03.743Z,5.60
2023-04-08T19:21:05.724Z,4.93
2023-04-08T19:23:07.613Z,4.30
2023-04-08T19:25:09.702Z,5.32
2023-04-08T19:27:14.997Z,7.10
2023-04-08T19:29:19.528Z,4.05
2023-04-08T19:31:22.107Z,8.10
2023-04-08T19:33:23.966Z,5.88
2023-04-08T19:35:26.108Z,4.30
2023-04-08T19:37:28.581Z,6.47
2023-04-08T19:39:30.608Z,7.47
2023-04-08T19:41:32.756Z,5.45
2023-04-08T19:43:34.696Z,6.68
2023-04-08T19:45:36.638Z,7.38
2023-04-08T19:47:42.418Z,7.00
2023-04-08T19:49:44.573Z,6.78
2023-04-08T19:51:46.522Z,6.45
2023-04-08T19:53:51.199Z,6.22
2023-04-08T19:55:59.534Z,10.18
2023-04-08T19:58:01.648Z,7.95
2023-04-08T20:00:04.702Z,7.57
2023-04-08T20:02:07.091Z,6.55
2023-04-08T20:04:09.130Z,6.50
2023-04-08T20:06:11.195Z,8.27
2023-04-08T20:08:13.126Z,9.82
2023-04-08T20:10:17.336Z,7.97
2023-04-08T20:12:19.340Z,9.07
2023-04-08T20:14:21.323Z,8.77
2023-04-08T20:16:25.278Z,10.57
2023-04-08T20:18:27.393Z,10.50
2023-04-08T20:20:30.122Z,11.15
2023-04-08T20:22:32.627Z,10.82
2023-04-08T20:24:34.563Z,10.68
2023-04-08T20:26:36.635Z,9.30
2023-04-08T20:28:38.591Z,11.05
2023-04-08T20:30:40.904Z,12.30
2023-04-08T20:32:42.866Z,14.40
2023-04-08T20:34:44.987Z,13.27
2023-04-08T20:36:49.155Z,13.63
2023-04-08T20:38:51.492Z,16.75
2023-04-08T20:40:53.516Z,17.33
2023-04-08T20:42:57.723Z,16.08
2023-04-08T20:45:00.710Z,18.98
2023-04-08T20:47:02.589Z,19.38
2023-04-08T20:49:05.104Z,16.98
2023-04-08T20:51:07.033Z,16.45
2023-04-08T20:53:10.281Z,16.73
2023-04-08T20:55:13.116Z,19.15
2023-04-08T20:57:15.021Z,20.38
2023-04-08T20:59:16.982Z,21.40
2023-04-08T21:01:18.939Z,18.88
2023-04-08T21:03:21.094Z,21.52
2023-04-08T21:05:23.029Z,22.13
2023-04-08T21:07:26.321Z,20.63
2023-04-08T21:09:28.281Z,22.52
2023-04-08T21:11:30.444Z,21.70
2023-04-08T21:13:36.112Z,17.77
2023-04-08T21:15:41.053Z,21.95
2023-04-08T21:17:43.016Z,22.20
2023-04-08T21:19:44.932Z,22.60
2023-04-08T21:21:47.065Z,23.88
2023-04-08T21:23:49.040Z,23.95
2023-04-08T21:25:50.897Z,25.05
2023-04-08T21:27:53.169Z,26.30
2023-04-08T21:29:55.009Z,25.48
2023-04-08T21:31:56.987Z,29.40
2023-04-08T21:34:01.438Z,28.40
2023-04-08T21:36:03.647Z,25.75
2023-04-08T21:38:07.635Z,27.00
2023-04-08T21:40:10.036Z,26.52
2023-04-08T21:42:14.292Z,28.60
2023-04-08T21:44:16.165Z,27.63
2023-04-08T21:46:18.180Z,28.60
2023-04-08T21:48:23.702Z,25.38
2023-04-08T21:50:25.661Z,26.77
2023-04-08T21:52:27.641Z,28.50
2023-04-08T21:54:29.487Z,28.92
2023-04-08T21:56:31.403Z,32.47
2023-04-08T21:58:33.856Z,31.23
2023-04-08T22:00:35.758Z,27.65
2023-04-08T22:02:40.898Z,28.52
2023-04-08T22:04:43.160Z,30.98
2023-04-08T22:06:45.530Z,27.02
2023-04-08T22:08:49.834Z,33.05
2023-04-08T22:10:51.876Z,32.58
2023-04-08T22:12:53.677Z,31.42
2023-04-08T22:14:55.696Z,33.60
2023-04-08T22:16:57.803Z,32.65
2023-04-08T22:18:59.721Z,28.17
2023-04-08T22:21:01.629Z,30.15
2023-04-08T22:23:03.633Z,28.45
2023-04-08T22:25:06.424Z,33.85
2023-04-08T22:27:08.425Z,29.85
2023-04-08T22:29:10.612Z,33.42
2023-04-08T22:31:13.109Z,30.58
2023-04-08T22:33:14.994Z,28.85
2023-04-08T22:35:17.055Z,34.10
2023-04-08T22:37:23.195Z,30.42
2023-04-08T22:39:26.197Z,25.50
2023-04-08T22:41:28.045Z,27.95
2023-04-08T22:43:30.041Z,30.25
2023-04-08T22:45:32.022Z,29.40
2023-04-08T22:47:34.123Z,28.60
2023-04-08T22:49:35.971Z,30.40
2023-04-08T22:51:40.156Z,31.38
2023-04-08T22:53:44.284Z,30.17
2023-04-08T22:55:46.188Z,30.65
2023-04-08T22:57:48.024Z,31.08
2023-04-08T22:59:49.862Z,31.45
2023-04-08T23:01:51.729Z,29.35
2023-04-08T23:03:53.658Z,31.98
2023-04-08T23:05:55.529Z,32.45
2023-04-08T23:07:59.377Z,30.73
2023-04-08T23:10:01.477Z,29.73
2023-04-08T23:12:05.484Z,27.30
2023-04-08T23:14:07.400Z,27.45
2023-04-08T23:16:09.940Z,31.02
2023-04-08T23:18:11.837Z,30.77
2023-04-08T23:20:13.712Z,28.23
2023-04-08T23:22:15.614Z,28.67
2023-04-08T23:24:20.619Z,27.13
2023-04-08T23:26:22.602Z,25.00
2023-04-08T23:28:24.504Z,28.70
2023-04-08T23:30:26.292Z,25.00
2023-04-08T23:32:28.289Z,27.13
2023-04-08T23:34:30.163Z,29.55
2023-04-08T23:36:31.975Z,31.05
2023-04-08T23:38:34.035Z,27.25
2023-04-08T23:40:36.039Z,30.25
2023-04-08T23:42:37.877Z,28.77
2023-04-08T23:44:39.808Z,29.10
2023-04-08T23:46:43.901Z,27.13
2023-04-08T23:48:46.041Z,29.20
2023-04-08T23:50:51.912Z,27.83
2023-04-08T23:52:53.718Z,25.60
2023-04-08T23:54:55.578Z,29.65
2023-04-08T23:56:57.447Z,28.58
2023-04-08T23:58:59.268Z,33.90
